createdAt,value
2019-02-09T00:00:02.316Z,0
2019-02-09T00:01:00.863Z,0
2019-02-09T00:01:59.388Z,0
2019-02-09T00:02:57.949Z,0
2019-02-09T00:03:57.285Z,0
2019-02-09T00:04:55.251Z,0
2019-02-09T00:05:53.913Z,0
2019-02-09T00:06:52.728Z,0
2019-02-09T00:07:51.270Z,0
2019-02-09T00:08:50.929Z,0
2019-02-09T00:09:49.488Z,0
2019-02-09T00:10:48.083Z,0
2019-02-09T00:11:46.782Z,0
2019-02-09T00:12:45.302Z,0
2019-02-09T00:13:43.852Z,0
2019-02-09T00:14:42.598Z,0
2019-02-09T00:15:41.142Z,0
2019-02-09T00:16:39.701Z,0
2019-02-09T00:17:38.322Z,0
2019-02-09T00:18:36.928Z,0
2019-02-09T00:19:35.469Z,0
2019-02-09T00:20:34.069Z,0
2019-02-09T00:21:32.801Z,0
2019-02-09T00:22:31.374Z,0
2019-02-09T00:23:29.910Z,0
2019-02-09T00:24:28.662Z,0
2019-02-09T00:25:27.241Z,0
2019-02-09T00:26:25.847Z,0
2019-02-09T00:27:24.495Z,0
2019-02-09T00:28:23.137Z,0
2019-02-09T00:29:21.671Z,0
2019-02-09T00:30:20.282Z,0
2019-02-09T00:31:18.838Z,0
2019-02-09T00:32:17.367Z,0
2019-02-09T00:33:15.915Z,0
2019-02-09T00:34:14.546Z,0
2019-02-09T00:35:13.123Z,0
2019-02-09T00:36:11.671Z,0
2019-02-09T00:37:10.917Z,0
2019-02-09T00:38:09.453Z,0
2019-02-09T00:39:08.020Z,0
2019-02-09T00:40:06.553Z,0
2019-02-09T00:41:05.097Z,0
2019-02-09T00:42:03.645Z,0
2019-02-09T00:43:02.210Z,0
2019-02-09T00:44:00.818Z,0
2019-02-09T00:44:59.480Z,0
2019-02-09T00:45:58.016Z,0
2019-02-09T00:46:56.782Z,0
2019-02-09T00:47:55.374Z,0
2019-02-09T00:48:54.038Z,0
2019-02-09T00:49:52.662Z,0
2019-02-09T00:50:51.195Z,0
2019-02-09T00:51:49.780Z,0
2019-02-09T00:52:48.307Z,0
2019-02-09T00:53:48.122Z,0
2019-02-09T00:54:45.378Z,0
2019-02-09T00:55:44.330Z,0
2019-02-09T00:56:43.108Z,0
2019-02-09T00:57:41.641Z,0
2019-02-09T00:58:40.266Z,0
2019-02-09T00:59:38.884Z,0
2019-02-09T01:00:37.449Z,0
2019-02-09T01:01:36.078Z,0
2019-02-09T01:02:34.854Z,0
2019-02-09T01:03:33.394Z,0
2019-02-09T01:04:32.539Z,0
2019-02-09T01:05:31.041Z,0
2019-02-09T01:06:29.569Z,0
2019-02-09T01:07:28.130Z,0
2019-02-09T01:08:26.937Z,0
2019-02-09T01:09:25.465Z,0
2019-02-09T01:10:24.019Z,0
2019-02-09T01:11:22.644Z,0
2019-02-09T01:12:21.195Z,0
2019-02-09T01:13:19.738Z,0
2019-02-09T01:14:18.499Z,0
2019-02-09T01:15:17.045Z,0
2019-02-09T01:16:15.619Z,0
2019-02-09T01:17:14.139Z,0
2019-02-09T01:18:12.662Z,0
2019-02-09T01:19:11.207Z,0
2019-02-09T01:20:09.753Z,0
2019-02-09T01:21:08.340Z,0
2019-02-09T01:22:06.990Z,0
2019-02-09T01:23:05.563Z,0
2019-02-09T01:24:04.214Z,0
2019-02-09T01:25:02.806Z,0
2019-02-09T01:26:01.395Z,0
2019-02-09T01:26:59.931Z,0
2019-02-09T01:27:58.687Z,0
2019-02-09T01:28:57.231Z,0
2019-02-09T01:30:02.074Z,0
2019-02-09T01:30:54.364Z,0
2019-02-09T01:31:52.927Z,0
2019-02-09T01:32:51.486Z,0
2019-02-09T01:33:50.044Z,0
2019-02-09T01:34:48.693Z,0
2019-02-09T01:35:47.227Z,0
2019-02-09T01:36:45.767Z,0
2019-02-09T01:37:44.632Z,0
2019-02-09T01:38:43.183Z,0
2019-02-09T01:39:41.712Z,0
2019-02-09T01:40:40.408Z,0
2019-02-09T01:41:38.981Z,0
2019-02-09T01:42:37.522Z,0
2019-02-09T01:43:36.105Z,0
2019-02-09T01:44:34.665Z,0
2019-02-09T01:45:33.366Z,0
2019-02-09T01:46:31.926Z,0
2019-02-09T01:47:30.773Z,0
2019-02-09T01:48:29.292Z,0
2019-02-09T01:49:27.833Z,0
2019-02-09T01:50:26.565Z,0
2019-02-09T01:51:25.108Z,0
2019-02-09T01:52:23.674Z,0
2019-02-09T01:53:22.233Z,0
2019-02-09T01:54:20.771Z,0
2019-02-09T01:55:19.398Z,0
2019-02-09T01:56:18.735Z,0
2019-02-09T01:57:17.264Z,0
2019-02-09T01:58:15.815Z,0
2019-02-09T01:59:14.337Z,0
2019-02-09T02:00:12.922Z,0
2019-02-09T02:01:11.840Z,0
2019-02-09T02:02:10.515Z,0
2019-02-09T02:03:09.151Z,0
2019-02-09T02:04:07.708Z,0
2019-02-09T02:05:06.351Z,0
2019-02-09T02:06:04.966Z,0
2019-02-09T02:07:03.580Z,0
2019-02-09T02:08:02.153Z,0
2019-02-09T02:09:00.917Z,0
2019-02-09T02:09:59.461Z,0
2019-02-09T02:10:58.093Z,0
2019-02-09T02:11:56.913Z,0
2019-02-09T02:12:55.460Z,0
2019-02-09T02:13:54.012Z,0
2019-02-09T02:14:52.565Z,0
2019-02-09T02:15:51.148Z,0
2019-02-09T02:16:49.681Z,0
2019-02-09T02:17:48.242Z,0
2019-02-09T02:18:46.883Z,0
2019-02-09T02:19:45.432Z,0
2019-02-09T02:20:43.967Z,0
2019-02-09T02:21:42.578Z,0
2019-02-09T02:22:41.124Z,0
2019-02-09T02:23:39.675Z,0
2019-02-09T02:24:38.336Z,0
2019-02-09T02:25:37.091Z,0
2019-02-09T02:26:35.668Z,0
2019-02-09T02:27:34.249Z,0
2019-02-09T02:28:32.800Z,0
2019-02-09T02:29:31.357Z,0
2019-02-09T02:30:29.881Z,0
2019-02-09T02:31:28.443Z,0
2019-02-09T02:32:26.977Z,0
2019-02-09T02:33:25.518Z,0
2019-02-09T02:34:24.111Z,0
2019-02-09T02:35:22.858Z,0
2019-02-09T02:36:21.455Z,0
2019-02-09T02:37:20.070Z,0
2019-02-09T02:38:18.651Z,0
2019-02-09T02:39:17.288Z,0
2019-02-09T02:40:15.803Z,0
2019-02-09T02:41:14.410Z,0
2019-02-09T02:42:12.989Z,0
2019-02-09T02:43:11.537Z,0
2019-02-09T02:44:10.082Z,0
2019-02-09T02:45:08.731Z,0
2019-02-09T02:46:07.290Z,0
2019-02-09T02:47:05.854Z,0
2019-02-09T02:48:04.540Z,0
2019-02-09T02:49:03.162Z,0
2019-02-09T02:50:01.731Z,0
2019-02-09T02:51:00.325Z,0
2019-02-09T02:51:58.976Z,0
2019-02-09T02:52:57.460Z,0
2019-02-09T02:53:56.151Z,0
2019-02-09T02:54:54.788Z,0
2019-02-09T02:55:53.279Z,0
2019-02-09T02:56:51.857Z,0
2019-02-09T02:57:50.419Z,0
2019-02-09T02:58:49.046Z,0
2019-02-09T02:59:47.831Z,0
2019-02-09T03:00:46.789Z,0
2019-02-09T03:01:45.338Z,0
2019-02-09T03:02:43.921Z,0
2019-02-09T03:03:42.483Z,0
2019-02-09T03:04:41.089Z,0
2019-02-09T03:05:40.338Z,0
2019-02-09T03:06:38.999Z,0
2019-02-09T03:07:37.549Z,0
2019-02-09T03:08:36.110Z,0
2019-02-09T03:09:34.870Z,0
2019-02-09T03:10:33.422Z,0
2019-02-09T03:11:32.024Z,0
2019-02-09T03:12:30.586Z,0
2019-02-09T03:13:29.566Z,0
2019-02-09T03:14:28.127Z,0
2019-02-09T03:15:26.692Z,0
2019-02-09T03:16:25.242Z,0
2019-02-09T03:17:23.792Z,0
2019-02-09T03:18:22.472Z,0
2019-02-09T03:19:21.096Z,0
2019-02-09T03:20:19.648Z,0
2019-02-09T03:21:18.259Z,0
2019-02-09T03:22:17.066Z,0
2019-02-09T03:23:15.601Z,0
2019-02-09T03:24:14.167Z,0
2019-02-09T03:25:12.700Z,0
2019-02-09T03:26:11.274Z,0
2019-02-09T03:27:09.811Z,0
2019-02-09T03:28:08.372Z,0
2019-02-09T03:29:06.924Z,0
2019-02-09T03:30:05.527Z,0
2019-02-09T03:31:04.064Z,0
2019-02-09T03:32:02.789Z,0
2019-02-09T03:33:01.352Z,0
2019-02-09T03:34:01.027Z,0
2019-02-09T03:34:59.196Z,0
2019-02-09T03:35:57.733Z,0
2019-02-09T03:36:56.416Z,0
2019-02-09T03:37:54.967Z,0
2019-02-09T03:38:53.490Z,0
2019-02-09T03:39:52.124Z,0
2019-02-09T03:40:51.050Z,0
2019-02-09T03:41:49.640Z,0
2019-02-09T03:42:48.260Z,0
2019-02-09T03:43:46.816Z,0
2019-02-09T03:44:45.377Z,0
2019-02-09T03:45:43.914Z,0
2019-02-09T03:46:42.598Z,0
2019-02-09T03:47:41.136Z,0
2019-02-09T03:48:39.686Z,0
2019-02-09T03:49:38.347Z,0
2019-02-09T03:50:36.930Z,0
2019-02-09T03:51:35.497Z,0
2019-02-09T03:52:34.059Z,0
2019-02-09T03:53:32.627Z,0
2019-02-09T03:54:31.226Z,0
2019-02-09T03:55:29.776Z,0
2019-02-09T03:56:29.516Z,0
2019-02-09T03:57:26.991Z,0
2019-02-09T03:58:25.540Z,0
2019-02-09T03:59:24.232Z,0
2019-02-09T04:00:22.909Z,0
2019-02-09T04:01:21.471Z,0
2019-02-09T04:02:20.001Z,0
2019-02-09T04:03:18.749Z,0
2019-02-09T04:04:17.303Z,0
2019-02-09T04:05:15.828Z,0
2019-02-09T04:06:14.376Z,0
2019-02-09T04:07:12.946Z,0
2019-02-09T04:08:11.510Z,0
2019-02-09T04:09:10.080Z,0
2019-02-09T04:10:08.825Z,0
2019-02-09T04:11:07.365Z,0
2019-02-09T04:12:05.890Z,0
2019-02-09T04:13:04.640Z,0
2019-02-09T04:14:03.172Z,0
2019-02-09T04:15:01.809Z,0
2019-02-09T04:16:00.495Z,0
2019-02-09T04:16:59.062Z,0
2019-02-09T04:17:57.691Z,0
2019-02-09T04:18:56.240Z,0
2019-02-09T04:19:55.043Z,0
2019-02-09T04:20:53.583Z,0
2019-02-09T04:21:52.267Z,0
2019-02-09T04:22:50.993Z,0
2019-02-09T04:23:49.539Z,0
2019-02-09T04:24:48.184Z,0
2019-02-09T04:25:46.758Z,0
2019-02-09T04:26:45.325Z,0
2019-02-09T04:27:44.541Z,0
2019-02-09T04:28:42.808Z,0
2019-02-09T04:29:41.372Z,0
2019-02-09T04:30:39.911Z,0
2019-02-09T04:31:38.610Z,0
2019-02-09T04:32:37.150Z,0
2019-02-09T04:33:35.717Z,0
2019-02-09T04:34:34.291Z,0
2019-02-09T04:35:32.890Z,0
2019-02-09T04:36:32.285Z,0
2019-02-09T04:37:30.866Z,0
2019-02-09T04:38:29.429Z,0
2019-02-09T04:39:27.983Z,0
2019-02-09T04:40:26.535Z,0
2019-02-09T04:41:25.214Z,0
2019-02-09T04:42:23.843Z,0
2019-02-09T04:43:22.531Z,0
2019-02-09T04:44:22.046Z,0
2019-02-09T04:45:19.648Z,0
2019-02-09T04:46:18.234Z,0
2019-02-09T04:47:16.874Z,0
2019-02-09T04:48:15.434Z,0
2019-02-09T04:49:14.677Z,0
2019-02-09T04:50:13.229Z,0
2019-02-09T04:51:11.788Z,0
2019-02-09T04:52:10.503Z,0
2019-02-09T04:53:08.980Z,0
2019-02-09T04:54:07.544Z,0
2019-02-09T04:55:06.110Z,0
2019-02-09T04:56:04.672Z,0
2019-02-09T04:57:03.215Z,0
2019-02-09T04:58:01.749Z,0
2019-02-09T04:59:00.312Z,0
2019-02-09T04:59:58.869Z,0
2019-02-09T05:00:57.413Z,0
2019-02-09T05:01:55.958Z,0
2019-02-09T05:02:54.791Z,0
2019-02-09T05:03:53.402Z,0
2019-02-09T05:04:51.938Z,0
2019-02-09T05:05:50.756Z,0
2019-02-09T05:06:49.306Z,0
2019-02-09T05:07:47.867Z,0
2019-02-09T05:08:46.399Z,0
2019-02-09T05:09:44.975Z,0
2019-02-09T05:10:43.537Z,0
2019-02-09T05:11:42.101Z,0
2019-02-09T05:12:40.808Z,0
2019-02-09T05:13:39.363Z,0
2019-02-09T05:14:38.101Z,0
2019-02-09T05:15:36.891Z,0
2019-02-09T05:16:35.435Z,0
2019-02-09T05:17:33.964Z,0
2019-02-09T05:18:32.547Z,0
2019-02-09T05:19:31.333Z,0
2019-02-09T05:20:29.866Z,0
2019-02-09T05:21:28.421Z,0
2019-02-09T05:22:27.111Z,0
2019-02-09T05:23:25.660Z,0
2019-02-09T05:24:24.270Z,0
2019-02-09T05:25:22.922Z,0
2019-02-09T05:26:21.500Z,0
2019-02-09T05:27:20.150Z,0
2019-02-09T05:28:18.717Z,0
2019-02-09T05:29:17.287Z,0
2019-02-09T05:30:15.887Z,0
2019-02-09T05:31:22.549Z,0
2019-02-09T05:32:13.114Z,0
2019-02-09T05:33:11.684Z,0
2019-02-09T05:34:10.429Z,0
2019-02-09T05:35:09.071Z,0
2019-02-09T05:36:07.634Z,0
2019-02-09T05:37:06.277Z,0
2019-02-09T05:38:04.832Z,0
2019-02-09T05:39:04.076Z,0
2019-02-09T05:40:02.857Z,0
2019-02-09T05:41:01.491Z,0
2019-02-09T05:42:00.035Z,0
2019-02-09T05:42:58.689Z,0
2019-02-09T05:43:57.366Z,0
2019-02-09T05:44:56.054Z,0
2019-02-09T05:45:54.764Z,0
2019-02-09T05:46:53.391Z,0
2019-02-09T05:47:51.924Z,0
2019-02-09T05:48:50.515Z,0
2019-02-09T05:49:49.063Z,0
2019-02-09T05:50:47.578Z,0
2019-02-09T05:51:46.119Z,0
2019-02-09T05:52:44.690Z,0
2019-02-09T05:53:43.253Z,0
2019-02-09T05:54:41.794Z,0
2019-02-09T05:55:40.760Z,0
2019-02-09T05:56:39.315Z,0
2019-02-09T05:57:38.126Z,0
2019-02-09T05:58:36.654Z,0
2019-02-09T05:59:35.195Z,0
2019-02-09T06:00:33.755Z,0
2019-02-09T06:01:32.718Z,0
2019-02-09T06:02:31.122Z,0
2019-02-09T06:03:29.722Z,0
2019-02-09T06:04:28.321Z,0
2019-02-09T06:05:26.893Z,0
2019-02-09T06:06:25.467Z,0
2019-02-09T06:07:24.008Z,0
2019-02-09T06:08:22.806Z,0
2019-02-09T06:09:21.472Z,0
2019-02-09T06:10:20.011Z,0
2019-02-09T06:11:19.219Z,0
2019-02-09T06:12:17.335Z,0
2019-02-09T06:13:16.111Z,0
2019-02-09T06:14:14.778Z,0
2019-02-09T06:15:13.540Z,0
2019-02-09T06:16:12.133Z,0
2019-02-09T06:17:11.000Z,0
2019-02-09T06:18:09.563Z,0
2019-02-09T06:19:08.105Z,0
2019-02-09T06:20:06.770Z,0
2019-02-09T06:21:05.319Z,0
2019-02-09T06:22:04.930Z,0
2019-02-09T06:23:03.658Z,0
2019-02-09T06:24:02.199Z,0
2019-02-09T06:25:00.827Z,0
2019-02-09T06:25:59.362Z,4
2019-02-09T06:26:57.927Z,0
2019-02-09T06:27:56.813Z,4
2019-02-09T06:28:55.354Z,4
2019-02-09T06:29:53.943Z,4
2019-02-09T06:30:52.486Z,4
2019-02-09T06:31:51.908Z,4
2019-02-09T06:32:49.584Z,4
2019-02-09T06:33:48.187Z,8
2019-02-09T06:34:46.732Z,12
2019-02-09T06:35:45.292Z,12
2019-02-09T06:36:43.844Z,12
2019-02-09T06:37:42.384Z,12
2019-02-09T06:38:40.975Z,12
2019-02-09T06:39:39.536Z,12
2019-02-09T06:40:38.099Z,12
2019-02-09T06:41:36.809Z,12
2019-02-09T06:42:35.327Z,16
2019-02-09T06:43:33.946Z,16
2019-02-09T06:44:32.571Z,16
2019-02-09T06:45:31.135Z,12
2019-02-09T06:46:29.670Z,12
2019-02-09T06:47:28.294Z,16
2019-02-09T06:48:26.929Z,24
2019-02-09T06:49:25.533Z,44
2019-02-09T06:50:24.149Z,32
2019-02-09T06:51:22.851Z,28
2019-02-09T06:52:21.418Z,32
2019-02-09T06:53:19.997Z,44
2019-02-09T06:54:18.683Z,64
2019-02-09T06:55:17.246Z,72
2019-02-09T06:56:15.786Z,60
2019-02-09T06:57:14.702Z,60
2019-02-09T06:58:13.255Z,88
2019-02-09T06:59:11.823Z,104
2019-02-09T07:00:10.790Z,120
2019-02-09T07:01:09.403Z,112
2019-02-09T07:02:08.034Z,108
2019-02-09T07:03:06.780Z,116
2019-02-09T07:04:05.464Z,92
2019-02-09T07:05:04.096Z,68
2019-02-09T07:06:03.100Z,60
2019-02-09T07:07:01.633Z,52
2019-02-09T07:08:00.233Z,48
2019-02-09T07:08:58.789Z,56
2019-02-09T07:09:57.425Z,76
2019-02-09T07:10:55.963Z,92
2019-02-09T07:11:54.835Z,132
2019-02-09T07:12:53.394Z,136
2019-02-09T07:13:51.949Z,160
2019-02-09T07:14:50.779Z,176
2019-02-09T07:15:49.454Z,164
2019-02-09T07:16:47.977Z,136
2019-02-09T07:17:46.529Z,136
2019-02-09T07:18:45.108Z,152
2019-02-09T07:19:43.653Z,164
2019-02-09T07:20:42.204Z,176
2019-02-09T07:21:40.905Z,184
2019-02-09T07:22:39.449Z,204
2019-02-09T07:23:38.180Z,184
2019-02-09T07:24:36.926Z,160
2019-02-09T07:25:35.461Z,148
2019-02-09T07:26:34.011Z,132
2019-02-09T07:27:32.567Z,144
2019-02-09T07:28:31.115Z,148
2019-02-09T07:29:29.676Z,164
2019-02-09T07:30:28.840Z,168
2019-02-09T07:31:27.067Z,200
2019-02-09T07:32:25.668Z,224
2019-02-09T07:33:24.397Z,220
2019-02-09T07:34:22.989Z,204
2019-02-09T07:35:21.559Z,184
2019-02-09T07:36:20.122Z,180
2019-02-09T07:37:18.782Z,156
2019-02-09T07:38:17.286Z,168
2019-02-09T07:39:15.910Z,240
2019-02-09T07:40:14.462Z,324
2019-02-09T07:41:13.214Z,316
2019-02-09T07:42:11.782Z,304
2019-02-09T07:43:10.431Z,332
2019-02-09T07:44:09.051Z,292
2019-02-09T07:45:07.583Z,292
2019-02-09T07:46:06.249Z,336
2019-02-09T07:47:04.879Z,372
2019-02-09T07:48:03.486Z,384
2019-02-09T07:49:02.032Z,360
2019-02-09T07:50:00.606Z,288
2019-02-09T07:50:59.371Z,296
2019-02-09T07:51:57.988Z,400
2019-02-09T07:55:36.751Z,592
2019-02-09T07:56:35.353Z,584
2019-02-09T07:57:33.927Z,640
2019-02-09T08:00:14.027Z,672
2019-02-09T08:01:12.746Z,756
2019-02-09T08:02:11.319Z,760
2019-02-09T08:03:09.957Z,732
2019-02-09T08:04:08.593Z,868
2019-02-09T08:05:07.449Z,1016
2019-02-09T08:06:05.994Z,1088
2019-02-09T08:07:04.595Z,1060
2019-02-09T08:08:03.165Z,1044
2019-02-09T08:09:01.709Z,1120
2019-02-09T08:10:00.293Z,1328
2019-02-09T08:10:59.047Z,1488
2019-02-09T08:11:57.609Z,1492
2019-02-09T08:12:56.253Z,1304
2019-02-09T08:13:55.010Z,1388
2019-02-09T08:14:53.705Z,1432
2019-02-09T08:15:52.294Z,1336
2019-02-09T08:16:50.925Z,1264
2019-02-09T08:17:49.484Z,1536
2019-02-09T08:18:48.028Z,2108
2019-02-09T08:19:46.831Z,2276
2019-02-09T08:20:45.408Z,2484
2019-02-09T08:21:44.099Z,2408
2019-02-09T08:22:42.707Z,2252
2019-02-09T08:23:41.271Z,2224
2019-02-09T08:24:39.870Z,2228
2019-02-09T08:25:38.451Z,2164
2019-02-09T08:26:37.093Z,2148
2019-02-09T08:27:37.850Z,2168
2019-02-09T08:28:36.491Z,1940
2019-02-09T08:29:35.167Z,1576
2019-02-09T08:30:33.702Z,1400
2019-02-09T08:31:32.343Z,1208
2019-02-09T08:32:30.896Z,1136
2019-02-09T08:33:29.454Z,1144
2019-02-09T08:34:27.997Z,1068
2019-02-09T08:35:26.533Z,980
2019-02-09T08:36:25.116Z,968
2019-02-09T08:37:23.722Z,992
2019-02-09T08:38:22.418Z,1224
2019-02-09T08:39:21.028Z,1784
2019-02-09T08:42:04.050Z,2484
2019-02-09T08:43:02.779Z,2652
2019-02-09T08:44:01.365Z,2692
2019-02-09T08:46:59.513Z,2260
2019-02-09T08:47:58.084Z,2012
2019-02-09T08:48:56.776Z,1864
2019-02-09T08:49:55.364Z,1688
2019-02-09T08:50:53.928Z,1544
2019-02-09T08:51:52.479Z,1480
2019-02-09T08:52:51.077Z,1104
2019-02-09T08:53:49.611Z,972
2019-02-09T08:54:48.166Z,964
2019-02-09T08:55:46.769Z,820
2019-02-09T08:56:45.355Z,864
2019-02-09T08:57:43.871Z,1004
2019-02-09T08:58:42.526Z,1172
2019-02-09T08:59:41.161Z,1168
2019-02-09T09:00:39.846Z,1180
2019-02-09T09:01:38.571Z,1044
2019-02-09T09:02:37.159Z,1056
2019-02-09T09:03:35.693Z,1120
2019-02-09T09:04:34.270Z,1352
2019-02-09T09:05:32.824Z,1160
2019-02-09T09:06:31.413Z,968
2019-02-09T09:07:29.953Z,880
2019-02-09T09:08:28.885Z,736
2019-02-09T09:09:27.447Z,656
2019-02-09T09:10:26.228Z,604
2019-02-09T09:11:24.770Z,632
2019-02-09T09:12:23.329Z,744
2019-02-09T09:13:21.862Z,948
2019-02-09T09:14:20.452Z,1264
2019-02-09T09:15:19.134Z,1172
2019-02-09T09:16:17.709Z,1024
2019-02-09T09:17:16.498Z,724
2019-02-09T09:18:15.081Z,780
2019-02-09T09:19:13.606Z,824
2019-02-09T09:20:12.315Z,1004
2019-02-09T09:21:10.947Z,1008
2019-02-09T09:22:09.504Z,956
2019-02-09T09:23:08.056Z,756
2019-02-09T09:24:06.671Z,912
2019-02-09T09:25:05.287Z,764
2019-02-09T09:26:03.837Z,712
2019-02-09T09:27:02.609Z,784
2019-02-09T09:28:01.304Z,840
2019-02-09T09:28:59.879Z,960
2019-02-09T09:29:58.598Z,916
2019-02-09T09:30:57.187Z,960
2019-02-09T09:31:55.772Z,928
2019-02-09T09:32:54.443Z,868
2019-02-09T09:33:53.565Z,940
2019-02-09T09:34:52.135Z,816
2019-02-09T09:35:50.717Z,776
2019-02-09T09:36:49.300Z,692
2019-02-09T09:37:47.925Z,720
2019-02-09T09:38:46.651Z,720
2019-02-09T09:39:45.308Z,1012
2019-02-09T09:40:43.872Z,1444
2019-02-09T09:41:42.707Z,1696
2019-02-09T09:42:41.240Z,1816
2019-02-09T09:43:39.824Z,1824
2019-02-09T09:44:38.558Z,1692
2019-02-09T09:45:37.211Z,1376
2019-02-09T09:46:35.762Z,1300
2019-02-09T09:47:34.423Z,1540
2019-02-09T09:48:33.167Z,1296
2019-02-09T09:49:31.708Z,1128
2019-02-09T09:50:30.349Z,1100
2019-02-09T09:51:28.902Z,1332
2019-02-09T09:52:27.479Z,1744
2019-02-09T09:53:26.058Z,1864
2019-02-09T09:54:24.670Z,2200
2019-02-09T09:55:23.410Z,2492
2019-02-09T09:56:21.955Z,2676
2019-02-09T09:57:20.659Z,2364
2019-02-09T09:58:19.395Z,2252
2019-02-09T09:59:17.921Z,2464
2019-02-09T10:00:16.521Z,2612
2019-02-09T10:04:06.812Z,2192
2019-02-09T10:05:05.360Z,2300
2019-02-09T10:06:03.917Z,1804
2019-02-09T10:07:02.683Z,1320
2019-02-09T10:08:01.288Z,1020
2019-02-09T10:08:59.884Z,1060
2019-02-09T10:09:58.762Z,1164
2019-02-09T10:10:57.306Z,1112
2019-02-09T10:11:55.859Z,1468
2019-02-09T10:12:54.344Z,1384
2019-02-09T10:13:52.984Z,1708
2019-02-09T10:14:51.540Z,1576
2019-02-09T10:15:50.079Z,1368
2019-02-09T10:16:48.822Z,1060
2019-02-09T10:17:47.389Z,1000
2019-02-09T10:18:45.947Z,1048
2019-02-09T10:19:44.607Z,1548
2019-02-09T10:31:33.314Z,968
2019-02-09T10:32:31.869Z,1152
2019-02-09T10:35:12.355Z,1032
2019-02-09T10:36:10.996Z,980
2019-02-09T10:37:09.543Z,1064
2019-02-09T10:38:08.116Z,1404
2019-02-09T10:39:06.691Z,1388
2019-02-09T10:40:05.212Z,1384
2019-02-09T10:41:03.761Z,1372
2019-02-09T10:42:02.325Z,1536
2019-02-09T10:43:01.109Z,1564
2019-02-09T10:43:59.661Z,1620
2019-02-09T10:44:58.325Z,1656
2019-02-09T10:45:57.070Z,2056
2019-02-09T10:46:55.795Z,1836
2019-02-09T10:47:54.361Z,1932
2019-02-09T10:48:52.894Z,1820
2019-02-09T10:53:30.412Z,2060
2019-02-09T10:54:29.151Z,2168
2019-02-09T10:55:27.730Z,1820
2019-02-09T10:56:26.415Z,1772
2019-02-09T10:57:25.086Z,1608
2019-02-09T10:58:23.714Z,1716
2019-02-09T10:59:22.383Z,1848
2019-02-09T11:00:20.931Z,1824
2019-02-09T11:01:19.653Z,1604
2019-02-09T11:02:18.255Z,1968
2019-02-09T11:03:16.895Z,1976
2019-02-09T11:04:15.476Z,1776
2019-02-09T11:05:14.048Z,1460
2019-02-09T11:06:12.759Z,1716
2019-02-09T11:07:11.344Z,2568
2019-02-09T11:08:09.969Z,2580
2019-02-09T11:09:08.533Z,2352
2019-02-09T11:10:07.171Z,2360
2019-02-09T11:11:05.694Z,2316
2019-02-09T11:12:04.474Z,1892
2019-02-09T11:13:03.113Z,1660
2019-02-09T11:14:01.658Z,1828
2019-02-09T11:15:00.251Z,2508
2019-02-09T11:15:58.936Z,2380
2019-02-09T11:16:57.519Z,2144
2019-02-09T11:17:56.232Z,2112
2019-02-09T11:18:54.920Z,1992
2019-02-09T11:19:53.567Z,2088
2019-02-09T11:20:52.129Z,2188
2019-02-09T11:21:50.667Z,2340
2019-02-09T11:22:49.321Z,1788
2019-02-09T11:23:47.905Z,1892
2019-02-09T11:24:46.547Z,2468
2019-02-09T11:25:45.267Z,2508
2019-02-09T11:26:43.822Z,2440
2019-02-09T11:27:42.682Z,2568
2019-02-09T11:28:41.246Z,2636
2019-02-09T11:29:39.821Z,2864
2019-02-09T11:30:38.393Z,2840
2019-02-09T11:31:39.128Z,2932
2019-02-09T11:32:35.582Z,3200
2019-02-09T11:33:34.180Z,3420
2019-02-09T11:34:33.020Z,3492
2019-02-09T11:35:31.773Z,3496
2019-02-09T11:36:30.318Z,3640
2019-02-09T11:37:28.958Z,3768
2019-02-09T11:38:27.478Z,4156
2019-02-09T11:39:26.211Z,4280
2019-02-09T11:40:25.057Z,4400
2019-02-09T11:43:05.213Z,4452
2019-02-09T11:44:03.732Z,4400
2019-02-09T11:45:02.375Z,4172
2019-02-09T11:46:00.940Z,3968
2019-02-09T11:46:59.564Z,3968
2019-02-09T11:47:58.112Z,3796
2019-02-09T11:50:38.935Z,3996
2019-02-09T11:51:37.471Z,3976
2019-02-09T11:52:36.062Z,3276
2019-02-09T11:53:34.804Z,3656
2019-02-09T11:54:33.670Z,3568
2019-02-09T11:55:32.278Z,3164
2019-02-09T11:56:30.847Z,3060
2019-02-09T11:57:29.435Z,3148
2019-02-09T12:16:33.979Z,1432
2019-02-09T12:17:32.729Z,1564
2019-02-09T12:20:14.530Z,2376
2019-02-09T12:21:13.248Z,2552
2019-02-09T12:22:11.814Z,2572
2019-02-09T12:23:10.498Z,2416
2019-02-09T12:24:09.098Z,2644
2019-02-09T12:25:07.594Z,2152
2019-02-09T12:26:06.228Z,1832
2019-02-09T12:27:05.028Z,1752
2019-02-09T12:28:03.673Z,1484
2019-02-09T12:29:02.828Z,1328
2019-02-09T12:31:43.052Z,2184
2019-02-09T12:32:41.754Z,2124
2019-02-09T12:50:40.804Z,852
2019-02-09T12:51:39.912Z,856
2019-02-09T12:52:38.772Z,928
2019-02-09T12:53:37.374Z,984
2019-02-09T12:54:36.131Z,972
2019-02-09T12:55:34.849Z,956
2019-02-09T12:56:33.484Z,1192
2019-02-09T12:57:32.063Z,1748
2019-02-09T12:58:30.817Z,2236
2019-02-09T13:00:55.018Z,3504
2019-02-09T13:01:53.564Z,3608
2019-02-09T13:02:52.096Z,3568
2019-02-09T13:03:50.664Z,3420
2019-02-09T13:04:49.451Z,3288
2019-02-09T13:05:48.046Z,3136
2019-02-09T13:06:46.826Z,3208
2019-02-09T13:07:45.513Z,3212
2019-02-09T13:08:44.055Z,3140
2019-02-09T13:09:42.750Z,3144
2019-02-09T13:10:41.338Z,3324
2019-02-09T13:11:40.044Z,3476
2019-02-09T13:12:38.624Z,3572
2019-02-09T13:13:37.495Z,3624
2019-02-09T13:14:36.049Z,3384
2019-02-09T13:15:34.923Z,2872
2019-02-09T13:16:33.539Z,2416
2019-02-09T13:17:32.158Z,2192
2019-02-09T13:18:31.104Z,2072
2019-02-09T13:19:29.751Z,2144
2019-02-09T13:20:28.452Z,1836
2019-02-09T13:21:26.982Z,2028
2019-02-09T13:24:07.472Z,2584
2019-02-09T13:25:06.056Z,2840
2019-02-09T13:27:28.820Z,2736
2019-02-09T13:28:27.365Z,2264
2019-02-09T13:29:25.927Z,1976
2019-02-09T13:30:24.533Z,1900
2019-02-09T13:31:23.092Z,2316
2019-02-09T13:32:21.675Z,2660
2019-02-09T13:33:20.247Z,2744
2019-02-09T13:34:18.817Z,2368
2019-02-09T13:35:17.489Z,2216
2019-02-09T13:36:16.050Z,1792
2019-02-09T13:37:15.000Z,1820
2019-02-09T13:38:13.623Z,1680
2019-02-09T13:39:12.184Z,1832
2019-02-09T13:40:11.095Z,2124
2019-02-09T13:41:09.653Z,2452
2019-02-09T13:42:08.231Z,2868
2019-02-09T13:43:07.008Z,3044
2019-02-09T13:44:05.573Z,2904
2019-02-09T13:45:04.134Z,2572
2019-02-09T13:52:49.791Z,3068
2019-02-09T13:55:30.303Z,2044
2019-02-09T13:58:10.523Z,1644
2019-02-09T13:59:09.249Z,1776
2019-02-09T14:00:07.888Z,1944
2019-02-09T14:01:06.566Z,2208
2019-02-09T14:02:05.189Z,2412
2019-02-09T14:03:03.733Z,2660
2019-02-09T14:04:02.316Z,2860
2019-02-09T14:05:00.962Z,2664
2019-02-09T14:06:07.825Z,2632
2019-02-09T14:06:58.385Z,2436
2019-02-09T14:07:57.169Z,2056
2019-02-09T14:08:55.845Z,1888
2019-02-09T14:09:54.378Z,2036
2019-02-09T14:10:53.020Z,2096
2019-02-09T14:11:53.243Z,2196
2019-02-09T14:14:25.515Z,2224
2019-02-09T14:15:24.065Z,2324
2019-02-09T14:16:22.598Z,2400
2019-02-09T14:17:21.326Z,2452
2019-02-09T14:18:20.014Z,2340
2019-02-09T14:19:18.684Z,2288
2019-02-09T14:20:17.375Z,2420
2019-02-09T14:21:16.003Z,2516
2019-02-09T14:22:14.604Z,2512
2019-02-09T14:23:13.276Z,2556
2019-02-09T14:24:11.845Z,2552
2019-02-09T14:25:10.506Z,2584
2019-02-09T14:26:09.211Z,2628
2019-02-09T14:27:07.787Z,2644
2019-02-09T14:28:06.405Z,2584
2019-02-09T14:29:05.149Z,2528
2019-02-09T14:30:03.747Z,2444
2019-02-09T14:31:02.287Z,2308
2019-02-09T14:32:00.930Z,2192
2019-02-09T14:32:59.607Z,2080
2019-02-09T14:33:58.198Z,2064
2019-02-09T14:34:56.938Z,2008
2019-02-09T14:35:55.667Z,1948
2019-02-09T14:36:54.385Z,2072
2019-02-09T14:37:52.987Z,2136
2019-02-09T14:38:51.615Z,2236
2019-02-09T14:39:50.262Z,2328
2019-02-09T14:40:49.075Z,2400
2019-02-09T14:41:47.668Z,2476
2019-02-09T14:42:46.255Z,2452
2019-02-09T14:43:44.935Z,2456
2019-02-09T14:44:43.564Z,2524
2019-02-09T14:45:42.136Z,2436
2019-02-09T14:46:40.801Z,2372
2019-02-09T14:47:39.582Z,2212
2019-02-09T14:48:38.327Z,2292
2019-02-09T14:49:37.001Z,2304
2019-02-09T14:50:35.681Z,2316
2019-02-09T14:51:34.234Z,2272
2019-02-09T14:52:33.251Z,2268
2019-02-09T14:53:31.892Z,2264
2019-02-09T14:54:30.418Z,2248
2019-02-09T14:55:29.033Z,2236
2019-02-09T14:56:27.599Z,2228
2019-02-09T14:57:26.240Z,2224
2019-02-09T14:58:24.783Z,2232
2019-02-09T14:59:23.362Z,2216
2019-02-09T15:00:21.925Z,2188
2019-02-09T15:01:20.883Z,2076
2019-02-09T15:02:19.558Z,1968
2019-02-09T15:03:25.654Z,1896
2019-02-09T15:04:16.702Z,1840
2019-02-09T15:05:15.308Z,1816
2019-02-09T15:06:13.887Z,1816
2019-02-09T15:07:12.507Z,1808
2019-02-09T15:08:11.324Z,1788
2019-02-09T15:09:09.870Z,1768
2019-02-09T15:10:08.448Z,1752